sensor_id;sensor_type;location;lat;lon;timestamp;pressure;altitude;pressure_sealevel;temperature;humidity
69836;BME280;57132;51.972;4.450;2022-11-20T00:00:52;101336.19;;;-2.87;100.00
69836;BME280;57132;51.972;4.450;2022-11-20T00:03:17;101341.41;;;-2.90;100.00
69836;BME280;57132;51.972;4.450;2022-11-20T00:05:43;101337.09;;;-2.92;100.00
69836;BME280;57132;51.972;4.450;2022-11-20T00:08:09;101336.25;;;-2.93;100.00
69836;BME280;57132;51.972;4.450;2022-11-20T00:10:38;101326.66;;;-2.95;100.00
69836;BME280;57132;51.972;4.450;2022-11-20T00:13:04;101324.94;;;-2.98;100.00
69836;BME280;57132;51.972;4.450;2022-11-20T00:15:30;101317.97;;;-2.98;100.00
69836;BME280;57132;51.972;4.450;2022-11-20T00:17:55;101317.97;;;-2.98;100.00
69836;BME280;57132;51.972;4.450;2022-11-20T00:20:21;101311.88;;;-2.97;100.00
69836;BME280;57132;51.972;4.450;2022-11-20T00:22:47;101320.59;;;-2.96;100.00
69836;BME280;57132;51.972;4.450;2022-11-20T00:25:12;101324.91;;;-2.95;100.00
69836;BME280;57132;51.972;4.450;2022-11-20T00:27:38;101322.31;;;-2.95;100.00
69836;BME280;57132;51.972;4.450;2022-11-20T00:30:04;101317.09;;;-2.95;100.00
69836;BME280;57132;51.972;4.450;2022-11-20T00:32:30;101311.00;;;-2.97;100.00
69836;BME280;57132;51.972;4.450;2022-11-20T00:34:55;101307.53;;;-2.98;100.00
69836;BME280;57132;51.972;4.450;2022-11-20T00:37:20;101312.78;;;-3.01;100.00
69836;BME280;57132;51.972;4.450;2022-11-20T00:39:46;101299.72;;;-3.02;100.00
69836;BME280;57132;51.972;4.450;2022-11-20T00:42:11;101296.25;;;-3.03;100.00
69836;BME280;57132;51.972;4.450;2022-11-20T00:44:36;101298.00;;;-3.03;100.00
69836;BME280;57132;51.972;4.450;2022-11-20T00:47:02;101304.94;;;-3.02;100.00
69836;BME280;57132;51.972;4.450;2022-11-20T00:49:27;101305.84;;;-3.03;100.00
69836;BME280;57132;51.972;4.450;2022-11-20T00:51:52;101308.47;;;-3.05;100.00
69836;BME280;57132;51.972;4.450;2022-11-20T00:54:18;101309.34;;;-3.07;100.00
69836;BME280;57132;51.972;4.450;2022-11-20T00:56:43;101307.59;;;-3.10;100.00
69836;BME280;57132;51.972;4.450;2022-11-20T00:59:09;101306.78;;;-3.12;100.00
69836;BME280;57132;51.972;4.450;2022-11-20T01:01:36;101308.53;;;-3.12;100.00
69836;BME280;57132;51.972;4.450;2022-11-20T01:04:02;101305.03;;;-3.14;100.00
69836;BME280;57132;51.972;4.450;2022-11-20T01:06:36;101314.59;;;-3.13;100.00
69836;BME280;57132;51.972;4.450;2022-11-20T01:09:07;101312.88;;;-3.16;100.00
69836;BME280;57132;51.972;4.450;2022-11-20T01:11:38;101307.66;;;-3.16;100.00
69836;BME280;57132;51.972;4.450;2022-11-20T01:14:06;101302.47;;;-3.19;100.00
69836;BME280;57132;51.972;4.450;2022-11-20T01:16:34;101293.75;;;-3.21;100.00
69836;BME280;57132;51.972;4.450;2022-11-20T01:19:03;101288.59;;;-3.24;100.00
69836;BME280;57132;51.972;4.450;2022-11-20T01:21:34;101285.13;;;-3.28;100.00
69836;BME280;57132;51.972;4.450;2022-11-20T01:24:01;101292.97;;;-3.28;100.00
69836;BME280;57132;51.972;4.450;2022-11-20T01:26:29;101293.84;;;-3.30;100.00
69836;BME280;57132;51.972;4.450;2022-11-20T01:28:56;101307.78;;;-3.31;100.00
69836;BME280;57132;51.972;4.450;2022-11-20T01:31:33;101299.06;;;-3.32;100.00
69836;BME280;57132;51.972;4.450;2022-11-20T01:34:01;101299.94;;;-3.33;100.00
69836;BME280;57132;51.972;4.450;2022-11-20T01:36:28;101299.06;;;-3.33;100.00
69836;BME280;57132;51.972;4.450;2022-11-20T01:38:56;101293.88;;;-3.35;100.00
69836;BME280;57132;51.972;4.450;2022-11-20T01:41:23;101295.63;;;-3.35;100.00
69836;BME280;57132;51.972;4.450;2022-11-20T01:44:11;101294.75;;;-3.37;100.00
69836;BME280;57132;51.972;4.450;2022-11-20T01:46:38;101287.78;;;-3.37;100.00
69836;BME280;57132;51.972;4.450;2022-11-20T01:49:18;101284.31;;;-3.39;100.00
69836;BME280;57132;51.972;4.450;2022-11-20T01:51:49;101295.66;;;-3.40;100.00
69836;BME280;57132;51.972;4.450;2022-11-20T01:54:19;101287.78;;;-3.38;100.00
69836;BME280;57132;51.972;4.450;2022-11-20T01:56:51;101283.44;;;-3.36;100.00
69836;BME280;57132;51.972;4.450;2022-11-20T01:59:19;101280.84;;;-3.36;100.00
69836;BME280;57132;51.972;4.450;2022-11-20T02:01:45;101288.66;;;-3.38;100.00
69836;BME280;57132;51.972;4.450;2022-11-20T02:04:11;101281.72;;;-3.42;100.00
69836;BME280;57132;51.972;4.450;2022-11-20T02:06:47;101280.88;;;-3.42;100.00
69836;BME280;57132;51.972;4.450;2022-11-20T02:09:14;101283.44;;;-3.41;100.00
69836;BME280;57132;51.972;4.450;2022-11-20T02:11:40;101287.81;;;-3.40;100.00
69836;BME280;57132;51.972;4.450;2022-11-20T02:14:06;101286.91;;;-3.37;100.00
69836;BME280;57132;51.972;4.450;2022-11-20T02:16:37;101286.91;;;-3.34;100.00
69836;BME280;57132;51.972;4.450;2022-11-20T02:19:09;101285.16;;;-3.32;100.00
69836;BME280;57132;51.972;4.450;2022-11-20T02:21:48;101275.59;;;-3.32;100.00
69836;BME280;57132;51.972;4.450;2022-11-20T02:24:19;101280.81;;;-3.32;100.00
69836;BME280;57132;51.972;4.450;2022-11-20T02:26:53;101272.97;;;-3.32;100.00
69836;BME280;57132;51.972;4.450;2022-11-20T02:29:27;101277.31;;;-3.31;100.00
69836;BME280;57132;51.972;4.450;2022-11-20T02:31:53;101273.81;;;-3.33;100.00
69836;BME280;57132;51.972;4.450;2022-11-20T02:34:20;101281.66;;;-3.31;100.00
69836;BME280;57132;51.972;4.450;2022-11-20T02:36:46;101266.00;;;-3.33;100.00
69836;BME280;57132;51.972;4.450;2022-11-20T02:39:13;101263.41;;;-3.34;100.00
69836;BME280;57132;51.972;4.450;2022-11-20T02:41:42;101259.09;;;-3.38;100.00
69836;BME280;57132;51.972;4.450;2022-11-20T02:44:07;101253.91;;;-3.40;100.00
69836;BME280;57132;51.972;4.450;2022-11-20T02:46:33;101253.03;;;-3.43;100.00
69836;BME280;57132;51.972;4.450;2022-11-20T02:49:00;101253.03;;;-3.42;100.00
69836;BME280;57132;51.972;4.450;2022-11-20T02:51:26;101253.03;;;-3.45;100.00
69836;BME280;57132;51.972;4.450;2022-11-20T02:53:51;101259.16;;;-3.48;100.00
69836;BME280;57132;51.972;4.450;2022-11-20T02:56:16;101260.91;;;-3.48;100.00
69836;BME280;57132;51.972;4.450;2022-11-20T02:58:42;101248.75;;;-3.54;100.00
69836;BME280;57132;51.972;4.450;2022-11-20T03:01:07;101245.28;;;-3.57;100.00
69836;BME280;57132;51.972;4.450;2022-11-20T03:03:32;101240.97;;;-3.58;100.00
69836;BME280;57132;51.972;4.450;2022-11-20T03:05:59;101233.16;;;-3.60;100.00
69836;BME280;57132;51.972;4.450;2022-11-20T03:08:25;101227.94;;;-3.60;100.00
69836;BME280;57132;51.972;4.450;2022-11-20T03:10:50;101227.03;;;-3.60;100.00
69836;BME280;57132;51.972;4.450;2022-11-20T03:13:15;101227.94;;;-3.60;100.00
69836;BME280;57132;51.972;4.450;2022-11-20T03:15:41;101226.19;;;-3.61;100.00
69836;BME280;57132;51.972;4.450;2022-11-20T03:18:06;101226.19;;;-3.59;100.00
69836;BME280;57132;51.972;4.450;2022-11-20T03:20:33;101226.19;;;-3.62;100.00
69836;BME280;57132;51.972;4.450;2022-11-20T03:22:59;101227.06;;;-3.62;100.00
69836;BME280;57132;51.972;4.450;2022-11-20T03:25:24;101215.78;;;-3.64;100.00
69836;BME280;57132;51.972;4.450;2022-11-20T03:27:50;101211.44;;;-3.66;100.00
69836;BME280;57132;51.972;4.450;2022-11-20T03:30:15;101213.19;;;-3.68;100.00
69836;BME280;57132;51.972;4.450;2022-11-20T03:32:41;101211.47;;;-3.69;100.00
69836;BME280;57132;51.972;4.450;2022-11-20T03:35:07;101221.91;;;-3.71;100.00
69836;BME280;57132;51.972;4.450;2022-11-20T03:37:32;101219.28;;;-3.69;100.00
69836;BME280;57132;51.972;4.450;2022-11-20T03:39:58;101221.06;;;-3.75;100.00
69836;BME280;57132;51.972;4.450;2022-11-20T03:42:23;101215.00;;;-3.78;100.00
69836;BME280;57132;51.972;4.450;2022-11-20T03:45:07;101206.28;;;-3.80;100.00
69836;BME280;57132;51.972;4.450;2022-11-20T03:47:32;101207.19;;;-3.80;100.00
69836;BME280;57132;51.972;4.450;2022-11-20T03:49:58;101206.31;;;-3.79;100.00
69836;BME280;57132;51.972;4.450;2022-11-20T03:52:23;101206.31;;;-3.79;100.00
69836;BME280;57132;51.972;4.450;2022-11-20T03:54:48;101195.88;;;-3.82;100.00
69836;BME280;57132;51.972;4.450;2022-11-20T03:57:14;101189.78;;;-3.81;100.00
69836;BME280;57132;51.972;4.450;2022-11-20T03:59:39;101182.84;;;-3.82;100.00
69836;BME280;57132;51.972;4.450;2022-11-20T04:02:04;101170.69;;;-3.83;100.00
69836;BME280;57132;51.972;4.450;2022-11-20T04:04:30;101175.03;;;-3.82;100.00
69836;BME280;57132;51.972;4.450;2022-11-20T04:06:55;101174.16;;;-3.82;100.00
69836;BME280;57132;51.972;4.450;2022-11-20T04:09:20;101174.16;;;-3.82;100.00
69836;BME280;57132;51.972;4.450;2022-11-20T04:11:46;101163.75;;;-3.85;100.00
69836;BME280;57132;51.972;4.450;2022-11-20T04:14:15;101159.41;;;-3.86;100.00
69836;BME280;57132;51.972;4.450;2022-11-20T04:16:41;101161.16;;;-3.88;100.00
69836;BME280;57132;51.972;4.450;2022-11-20T04:19:12;101160.28;;;-3.89;100.00
69836;BME280;57132;51.972;4.450;2022-11-20T04:21:38;101153.38;;;-3.91;100.00
69836;BME280;57132;51.972;4.450;2022-11-20T04:24:04;101147.31;;;-3.95;100.00
69836;BME280;57132;51.972;4.450;2022-11-20T04:26:30;101158.59;;;-3.98;100.00
69836;BME280;57132;51.972;4.450;2022-11-20T04:28:55;101158.59;;;-3.98;100.00
69836;BME280;57132;51.972;4.450;2022-11-20T04:31:26;101161.25;;;-3.99;100.00
69836;BME280;57132;51.972;4.450;2022-11-20T04:33:52;101155.13;;;-3.97;100.00
69836;BME280;57132;51.972;4.450;2022-11-20T04:36:22;101160.34;;;-3.97;100.00
69836;BME280;57132;51.972;4.450;2022-11-20T04:38:51;101169.91;;;-3.96;100.00
69836;BME280;57132;51.972;4.450;2022-11-20T04:41:19;101168.16;;;-3.95;100.00
69836;BME280;57132;51.972;4.450;2022-11-20T04:43:49;101178.56;;;-3.93;100.00
69836;BME280;57132;51.972;4.450;2022-11-20T04:46:15;101172.47;;;-3.91;100.00
69836;BME280;57132;51.972;4.450;2022-11-20T04:48:40;101164.66;;;-3.91;100.00
69836;BME280;57132;51.972;4.450;2022-11-20T04:51:06;101157.72;;;-3.92;100.00
69836;BME280;57132;51.972;4.450;2022-11-20T04:53:31;101157.72;;;-3.92;100.00
69836;BME280;57132;51.972;4.450;2022-11-20T04:56:01;101155.97;;;-3.93;100.00
69836;BME280;57132;51.972;4.450;2022-11-20T04:58:27;101146.41;;;-3.94;100.00
69836;BME280;57132;51.972;4.450;2022-11-20T05:00:53;101154.25;;;-3.94;100.00
69836;BME280;57132;51.972;4.450;2022-11-20T05:03:18;101146.44;;;-3.96;100.00
69836;BME280;57132;51.972;4.450;2022-11-20T05:05:43;101147.31;;;-3.98;100.00
69836;BME280;57132;51.972;4.450;2022-11-20T05:08:09;101154.25;;;-3.97;100.00
69836;BME280;57132;51.972;4.450;2022-11-20T05:10:34;101157.72;;;-3.95;100.00
69836;BME280;57132;51.972;4.450;2022-11-20T05:12:59;101168.13;;;-3.93;100.00
69836;BME280;57132;51.972;4.450;2022-11-20T05:15:25;101160.34;;;-3.95;100.00
69836;BME280;57132;51.972;4.450;2022-11-20T05:17:51;101165.53;;;-3.97;100.00
69836;BME280;57132;51.972;4.450;2022-11-20T05:20:17;101165.56;;;-3.95;100.00
69836;BME280;57132;51.972;4.450;2022-11-20T05:22:43;101156.84;;;-3.94;100.00
69836;BME280;57132;51.972;4.450;2022-11-20T05:25:09;101163.78;;;-3.91;100.00
69836;BME280;57132;51.972;4.450;2022-11-20T05:27:35;101164.63;;;-3.89;100.00
69836;BME280;57132;51.972;4.450;2022-11-20T05:30:00;101162.03;;;-3.86;100.00
69836;BME280;57132;51.972;4.450;2022-11-20T05:32:25;101163.75;;;-3.84;100.00
69836;BME280;57132;51.972;4.450;2022-11-20T05:34:51;101157.63;;;-3.84;100.00
69836;BME280;57132;51.972;4.450;2022-11-20T05:37:17;101156.81;;;-3.86;100.00
69836;BME280;57132;51.972;4.450;2022-11-20T05:39:42;101155.06;;;-3.86;100.00
69836;BME280;57132;51.972;4.450;2022-11-20T05:42:07;101148.09;;;-3.85;100.00
69836;BME280;57132;51.972;4.450;2022-11-20T05:44:51;101141.19;;;-3.88;100.00
69836;BME280;57132;51.972;4.450;2022-11-20T05:47:16;101142.91;;;-3.90;100.00
69836;BME280;57132;51.972;4.450;2022-11-20T05:49:42;101135.13;;;-3.91;100.00
69836;BME280;57132;51.972;4.450;2022-11-20T05:52:07;101129.03;;;-3.90;100.00
69836;BME280;57132;51.972;4.450;2022-11-20T05:54:32;101127.28;;;-3.91;100.00
69836;BME280;57132;51.972;4.450;2022-11-20T05:56:58;101116.84;;;-3.93;100.00
69836;BME280;57132;51.972;4.450;2022-11-20T05:59:23;101110.78;;;-3.92;100.00
69836;BME280;57132;51.972;4.450;2022-11-20T06:01:48;101102.09;;;-3.91;100.00
69836;BME280;57132;51.972;4.450;2022-11-20T06:04:14;101109.88;;;-3.88;100.00
69836;BME280;57132;51.972;4.450;2022-11-20T06:06:39;101098.56;;;-3.87;100.00
69836;BME280;57132;51.972;4.450;2022-11-20T06:09:04;101102.03;;;-3.85;100.00
69836;BME280;57132;51.972;4.450;2022-11-20T06:11:30;101105.50;;;-3.83;100.00
69836;BME280;57132;51.972;4.450;2022-11-20T06:13:55;101101.16;;;-3.84;100.00
69836;BME280;57132;51.972;4.450;2022-11-20T06:16:20;101100.28;;;-3.83;100.00
69836;BME280;57132;51.972;4.450;2022-11-20T06:18:47;101097.66;;;-3.83;100.00
69836;BME280;57132;51.972;4.450;2022-11-20T06:21:15;101094.19;;;-3.85;100.00
69836;BME280;57132;51.972;4.450;2022-11-20T06:23:40;101088.97;;;-3.85;100.00
69836;BME280;57132;51.972;4.450;2022-11-20T06:26:09;101092.47;;;-3.86;100.00
69836;BME280;57132;51.972;4.450;2022-11-20T06:28:35;101084.66;;;-3.86;100.00
69836;BME280;57132;51.972;4.450;2022-11-20T06:31:01;101084.66;;;-3.86;100.00
69836;BME280;57132;51.972;4.450;2022-11-20T06:33:26;101085.50;;;-3.82;100.00
69836;BME280;57132;51.972;4.450;2022-11-20T06:35:52;101083.72;;;-3.80;100.00
69836;BME280;57132;51.972;4.450;2022-11-20T06:38:17;101085.44;;;-3.76;100.00
69836;BME280;57132;51.972;4.450;2022-11-20T06:40:43;101093.25;;;-3.72;100.00
69836;BME280;57132;51.972;4.450;2022-11-20T06:43:09;101094.94;;;-3.67;100.00
69836;BME280;57132;51.972;4.450;2022-11-20T06:45:35;101089.69;;;-3.64;100.00
69836;BME280;57132;51.972;4.450;2022-11-20T06:48:01;101087.91;;;-3.59;100.00
69836;BME280;57132;51.972;4.450;2022-11-20T06:50:26;101091.38;;;-3.56;100.00
69836;BME280;57132;51.972;4.450;2022-11-20T06:52:51;101086.97;;;-3.54;100.00
69836;BME280;57132;51.972;4.450;2022-11-20T06:55:17;101093.03;;;-3.50;100.00
69836;BME280;57132;51.972;4.450;2022-11-20T06:57:42;101084.31;;;-3.46;100.00
69836;BME280;57132;51.972;4.450;2022-11-20T07:00:08;101092.94;;;-3.41;100.00
69836;BME280;57132;51.972;4.450;2022-11-20T07:02:33;101087.69;;;-3.35;100.00
69836;BME280;57132;51.972;4.450;2022-11-20T07:04:58;101091.09;;;-3.30;100.00
69836;BME280;57132;51.972;4.450;2022-11-20T07:07:24;101077.16;;;-3.26;100.00
69836;BME280;57132;51.972;4.450;2022-11-20T07:09:49;101071.00;;;-3.20;100.00
69836;BME280;57132;51.972;4.450;2022-11-20T07:12:14;101071.84;;;-3.16;100.00
69836;BME280;57132;51.972;4.450;2022-11-20T07:14:40;101081.31;;;-3.08;100.00
69836;BME280;57132;51.972;4.450;2022-11-20T07:17:05;101084.72;;;-3.01;100.00
69836;BME280;57132;51.972;4.450;2022-11-20T07:19:30;101091.59;;;-2.92;100.00
69836;BME280;57132;51.972;4.450;2022-11-20T07:21:56;101087.97;;;-2.82;100.00
69836;BME280;57132;51.972;4.450;2022-11-20T07:24:21;101083.56;;;-2.76;100.00
69836;BME280;57132;51.972;4.450;2022-11-20T07:26:47;101088.69;;;-2.69;100.00
69836;BME280;57132;51.972;4.450;2022-11-20T07:29:14;101086.00;;;-2.63;100.00
69836;BME280;57132;51.972;4.450;2022-11-20T07:31:39;101083.34;;;-2.57;100.00
69836;BME280;57132;51.972;4.450;2022-11-20T07:34:05;101081.53;;;-2.52;100.00
69836;BME280;57132;51.972;4.450;2022-11-20T07:36:30;101083.22;;;-2.48;100.00
69836;BME280;57132;51.972;4.450;2022-11-20T07:38:56;101082.28;;;-2.45;100.00
69836;BME280;57132;51.972;4.450;2022-11-20T07:41:21;101088.34;;;-2.42;100.00
69836;BME280;57132;51.972;4.450;2022-11-20T07:43:46;101084.78;;;-2.36;100.00
69836;BME280;57132;51.972;4.450;2022-11-20T07:46:11;101086.44;;;-2.31;100.00
69836;BME280;57132;51.972;4.450;2022-11-20T07:48:37;101086.38;;;-2.25;100.00
69836;BME280;57132;51.972;4.450;2022-11-20T07:51:02;101094.09;;;-2.18;100.00
69836;BME280;57132;51.972;4.450;2022-11-20T07:53:27;101102.75;;;-2.12;100.00
69836;BME280;57132;51.972;4.450;2022-11-20T07:55:53;101093.06;;;-2.05;100.00
69836;BME280;57132;51.972;4.450;2022-11-20T07:58:19;101092.91;;;-1.96;100.00
69836;BME280;57132;51.972;4.450;2022-11-20T08:00:45;101078.81;;;-1.87;100.00
69836;BME280;57132;51.972;4.450;2022-11-20T08:03:11;101072.56;;;-1.79;100.00
69836;BME280;57132;51.972;4.450;2022-11-20T08:05:36;101079.41;;;-1.68;100.00
69836;BME280;57132;51.972;4.450;2022-11-20T08:08:02;101076.69;;;-1.62;100.00
69836;BME280;57132;51.972;4.450;2022-11-20T08:10:28;101073.91;;;-1.55;100.00
69836;BME280;57132;51.972;4.450;2022-11-20T08:12:53;101068.63;;;-1.50;100.00
69836;BME280;57132;51.972;4.450;2022-11-20T08:15:39;101076.31;;;-1.41;100.00
69836;BME280;57132;51.972;4.450;2022-11-20T08:18:07;101076.19;;;-1.35;100.00
69836;BME280;57132;51.972;4.450;2022-11-20T08:20:33;101071.78;;;-1.33;100.00
69836;BME280;57132;51.972;4.450;2022-11-20T08:23:00;101076.00;;;-1.22;100.00
69836;BME280;57132;51.972;4.450;2022-11-20T08:25:27;101069.81;;;-1.18;100.00
69836;BME280;57132;51.972;4.450;2022-11-20T08:27:53;101073.09;;;-1.09;100.00
69836;BME280;57132;51.972;4.450;2022-11-20T08:30:18;101066.84;;;-1.03;100.00
69836;BME280;57132;51.972;4.450;2022-11-20T08:32:44;101069.34;;;-0.95;100.00
69836;BME280;57132;51.972;4.450;2022-11-20T08:35:09;101067.50;;;-0.90;100.00
69836;BME280;57132;51.972;4.450;2022-11-20T08:37:34;101072.69;;;-0.89;100.00
69836;BME280;57132;51.972;4.450;2022-11-20T08:40:00;101065.75;;;-0.90;100.00
69836;BME280;57132;51.972;4.450;2022-11-20T08:42:25;101072.66;;;-0.86;100.00
69836;BME280;57132;51.972;4.450;2022-11-20T08:44:50;101071.75;;;-0.85;100.00
69836;BME280;57132;51.972;4.450;2022-11-20T08:47:16;101063.78;;;-0.80;100.00
69836;BME280;57132;51.972;4.450;2022-11-20T08:49:41;101052.34;;;-0.76;100.00
69836;BME280;57132;51.972;4.450;2022-11-20T08:52:06;101062.72;;;-0.70;100.00
69836;BME280;57132;51.972;4.450;2022-11-20T08:54:32;101055.63;;;-0.65;100.00
69836;BME280;57132;51.972;4.450;2022-11-20T08:56:57;101061.63;;;-0.60;100.00
69836;BME280;57132;51.972;4.450;2022-11-20T08:59:23;101060.63;;;-0.54;100.00
69836;BME280;57132;51.972;4.450;2022-11-20T09:01:48;101059.63;;;-0.48;100.00
69836;BME280;57132;51.972;4.450;2022-11-20T09:04:13;101053.34;;;-0.41;100.00
69836;BME280;57132;51.972;4.450;2022-11-20T09:06:39;101044.53;;;-0.37;100.00
69836;BME280;57132;51.972;4.450;2022-11-20T09:09:05;101051.44;;;-0.33;100.00
69836;BME280;57132;51.972;4.450;2022-11-20T09:11:31;101044.34;;;-0.30;100.00
69836;BME280;57132;51.972;4.450;2022-11-20T09:13:56;101045.94;;;-0.22;100.00
69836;BME280;57132;51.972;4.450;2022-11-20T09:16:22;101044.97;;;-0.18;100.00
69836;BME280;57132;51.972;4.450;2022-11-20T09:18:49;101044.88;;;-0.14;100.00
69836;BME280;57132;51.972;4.450;2022-11-20T09:21:15;101035.97;;;-0.08;100.00
69836;BME280;57132;51.972;4.450;2022-11-20T09:23:40;101035.84;;;-0.02;100.00
69836;BME280;57132;51.972;4.450;2022-11-20T09:26:13;101028.72;;;0.03;100.00
69836;BME280;57132;51.972;4.450;2022-11-20T09:28:39;101017.41;;;0.01;100.00
69836;BME280;57132;51.972;4.450;2022-11-20T09:31:06;101011.19;;;0.05;100.00
69836;BME280;57132;51.972;4.450;2022-11-20T09:33:31;101010.19;;;0.09;100.00
69836;BME280;57132;51.972;4.450;2022-11-20T09:35:56;101004.03;;;0.10;100.00
69836;BME280;57132;51.972;4.450;2022-11-20T09:38:22;100998.69;;;0.15;100.00
69836;BME280;57132;51.972;4.450;2022-11-20T09:41:02;100991.59;;;0.18;100.00
69836;BME280;57132;51.972;4.450;2022-11-20T09:43:41;100985.34;;;0.22;100.00
69836;BME280;57132;51.972;4.450;2022-11-20T09:51:59;100972.75;;;0.35;100.00
69836;BME280;57132;51.972;4.450;2022-11-20T09:54:31;100965.66;;;0.39;100.00
69836;BME280;57132;51.972;4.450;2022-11-20T09:57:03;100962.97;;;0.42;100.00
69836;BME280;57132;51.972;4.450;2022-11-20T09:59:40;100955.88;;;0.45;100.00
69836;BME280;57132;51.972;4.450;2022-11-20T10:02:37;100950.41;;;0.53;100.00
69836;BME280;57132;51.972;4.450;2022-11-20T10:05:18;100945.81;;;0.61;100.00
69836;BME280;57132;51.972;4.450;2022-11-20T10:08:21;100942.13;;;0.67;100.00
69836;BME280;57132;51.972;4.450;2022-11-20T10:11:10;100922.72;;;0.72;100.00
69836;BME280;57132;51.972;4.450;2022-11-20T10:27:32;100903.66;;;0.95;100.00
69836;BME280;57132;51.972;4.450;2022-11-20T10:30:12;100895.66;;;0.98;100.00
69836;BME280;57132;51.972;4.450;2022-11-20T10:32:43;100888.53;;;1.02;100.00
69836;BME280;57132;51.972;4.450;2022-11-20T10:37:43;100888.38;;;1.08;100.00
69836;BME280;57132;51.972;4.450;2022-11-20T10:45:46;100884.34;;;1.25;100.00
69836;BME280;57132;51.972;4.450;2022-11-20T10:48:22;100884.19;;;1.31;100.00
69836;BME280;57132;51.972;4.450;2022-11-20T10:56:35;100855.84;;;1.39;100.00
69836;BME280;57132;51.972;4.450;2022-11-20T11:01:57;100838.84;;;1.49;100.00
69836;BME280;57132;51.972;4.450;2022-11-20T11:06:56;100835.03;;;1.58;100.00
69836;BME280;57132;51.972;4.450;2022-11-20T11:09:38;100832.38;;;1.59;100.00
69836;BME280;57132;51.972;4.450;2022-11-20T11:12:09;100819.91;;;1.64;100.00
69836;BME280;57132;51.972;4.450;2022-11-20T11:14:45;100806.50;;;1.72;100.00
69836;BME280;57132;51.972;4.450;2022-11-20T11:17:28;100805.53;;;1.75;100.00
69836;BME280;57132;51.972;4.450;2022-11-20T11:20:25;100808.88;;;1.80;100.00
69836;BME280;57132;51.972;4.450;2022-11-20T11:22:53;100801.66;;;1.85;100.00
69836;BME280;57132;51.972;4.450;2022-11-20T11:25:40;100791.03;;;1.88;100.00
69836;BME280;57132;51.972;4.450;2022-11-20T11:28:21;100769.13;;;1.87;100.00
69836;BME280;57132;51.972;4.450;2022-11-20T11:30:47;100762.75;;;1.93;100.00
69836;BME280;57132;51.972;4.450;2022-11-20T11:33:25;100750.41;;;1.95;100.00
69836;BME280;57132;51.972;4.450;2022-11-20T11:35:54;100740.00;;;1.92;100.00
69836;BME280;57132;51.972;4.450;2022-11-20T11:38:29;100719.69;;;1.95;100.00
69836;BME280;57132;51.972;4.450;2022-11-20T11:40:56;100721.13;;;2.04;100.00
69836;BME280;57132;51.972;4.450;2022-11-20T11:43:27;100709.72;;;2.04;100.00
69836;BME280;57132;51.972;4.450;2022-11-20T11:49:01;100710.69;;;2.25;100.00
69836;BME280;57132;51.972;4.450;2022-11-20T11:54:19;100717.34;;;2.33;100.00
69836;BME280;57132;51.972;4.450;2022-11-20T11:56:48;100713.84;;;2.34;100.00
69836;BME280;57132;51.972;4.450;2022-11-20T11:59:22;100714.72;;;2.33;100.00
69836;BME280;57132;51.972;4.450;2022-11-20T12:01:52;100704.19;;;2.33;100.00
69836;BME280;57132;51.972;4.450;2022-11-20T12:04:38;100699.75;;;2.35;100.00
69836;BME280;57132;51.972;4.450;2022-11-20T12:07:37;100705.00;;;2.35;100.00
69836;BME280;57132;51.972;4.450;2022-11-20T12:10:08;100698.06;;;2.33;100.00
69836;BME280;57132;51.972;4.450;2022-11-20T12:12:42;100687.44;;;2.36;100.00
69836;BME280;57132;51.972;4.450;2022-11-20T12:15:20;100686.31;;;2.41;100.00
69836;BME280;57132;51.972;4.450;2022-11-20T12:17:48;100685.34;;;2.44;100.00
69836;BME280;57132;51.972;4.450;2022-11-20T12:20:14;100683.38;;;2.49;100.00
69836;BME280;57132;51.972;4.450;2022-11-20T12:25:27;100673.25;;;2.60;100.00
69836;BME280;57132;51.972;4.450;2022-11-20T12:30:22;100661.84;;;2.61;100.00
69836;BME280;57132;51.972;4.450;2022-11-20T12:35:48;100651.34;;;2.60;100.00
69836;BME280;57132;51.972;4.450;2022-11-20T12:38:33;100646.19;;;2.57;100.00
69836;BME280;57132;51.972;4.450;2022-11-20T12:44:00;100627.75;;;2.57;100.00
69836;BME280;57132;51.972;4.450;2022-11-20T12:49:39;100624.25;;;2.56;100.00
69836;BME280;57132;51.972;4.450;2022-11-20T12:52:16;100609.19;;;2.60;100.00
69836;BME280;57132;51.972;4.450;2022-11-20T12:55:08;100616.16;;;2.61;100.00
69836;BME280;57132;51.972;4.450;2022-11-20T13:02:50;100596.66;;;2.65;100.00
69836;BME280;57132;51.972;4.450;2022-11-20T13:05:51;100583.56;;;2.63;100.00
69836;BME280;57132;51.972;4.450;2022-11-20T13:08:38;100584.38;;;2.65;100.00
69836;BME280;57132;51.972;4.450;2022-11-20T13:14:04;100580.81;;;2.66;100.00
69836;BME280;57132;51.972;4.450;2022-11-20T13:19:11;100577.16;;;2.69;100.00
69836;BME280;57132;51.972;4.450;2022-11-20T13:21:42;100571.84;;;2.70;100.00
69836;BME280;57132;51.972;4.450;2022-11-20T13:24:21;100573.56;;;2.71;100.00
69836;BME280;57132;51.972;4.450;2022-11-20T13:29:57;100561.50;;;2.66;100.00
69836;BME280;57132;51.972;4.450;2022-11-20T13:32:24;100554.50;;;2.65;100.00
69836;BME280;57132;51.972;4.450;2022-11-20T13:34:54;100544.16;;;2.60;100.00
69836;BME280;57132;51.972;4.450;2022-11-20T13:37:43;100537.19;;;2.59;100.00
69836;BME280;57132;51.972;4.450;2022-11-20T13:42:45;100532.91;;;2.57;100.00
69836;BME280;57132;51.972;4.450;2022-11-20T13:45:23;100526.03;;;2.53;100.00
69836;BME280;57132;51.972;4.450;2022-11-20T13:47:50;100519.00;;;2.53;100.00
69836;BME280;57132;51.972;4.450;2022-11-20T13:50:17;100504.19;;;2.51;100.00
69836;BME280;57132;51.972;4.450;2022-11-20T13:55:42;100493.97;;;2.43;100.00
69836;BME280;57132;51.972;4.450;2022-11-20T14:01:21;100470.69;;;2.34;100.00
69836;BME280;57132;51.972;4.450;2022-11-20T14:03:48;100469.88;;;2.32;100.00
69836;BME280;57132;51.972;4.450;2022-11-20T14:06:28;100467.44;;;2.27;100.00
69836;BME280;57132;51.972;4.450;2022-11-20T14:08:55;100452.50;;;2.28;100.00
69836;BME280;57132;51.972;4.450;2022-11-20T14:11:26;100443.78;;;2.26;100.00